createdAt,value
2023-04-27T00:01:51.534Z,7.68
2023-04-27T00:04:19.260Z,7.75
2023-04-27T00:06:46.072Z,7.62
2023-04-27T00:09:12.991Z,7.55
2023-04-27T00:11:39.558Z,7.56
2023-04-27T00:14:06.033Z,7.59
2023-04-27T00:16:32.555Z,7.46
2023-04-27T00:18:59.003Z,7.59
2023-04-27T00:21:25.448Z,7.33
2023-04-27T00:23:51.902Z,7.52
2023-04-27T00:26:18.288Z,7.37
2023-04-27T00:28:44.702Z,7.44
2023-04-27T00:31:11.321Z,7.42
2023-04-27T00:33:37.864Z,7.05
2023-04-27T00:36:04.526Z,7.28
2023-04-27T00:38:31.243Z,7.29
2023-04-27T00:41:02.400Z,7.29
2023-04-27T00:43:28.874Z,7.19
2023-04-27T00:45:55.555Z,7.16
2023-04-27T00:48:22.464Z,7.22
2023-04-27T00:50:49.552Z,7.18
2023-04-27T00:53:16.133Z,7.15
2023-04-27T00:55:42.543Z,7.13
2023-04-27T00:58:08.993Z,7.13
2023-04-27T01:00:36.366Z,7.08
2023-04-27T01:03:04.586Z,7.03
2023-04-27T01:05:32.576Z,6.99
2023-04-27T01:07:59.264Z,7.04
2023-04-27T01:10:25.682Z,7.02
2023-04-27T01:12:52.241Z,6.97
2023-04-27T01:15:18.711Z,6.95
2023-04-27T01:17:45.186Z,6.96
2023-04-27T01:20:12.043Z,6.85
2023-04-27T01:22:38.929Z,6.90
2023-04-27T01:25:06.561Z,7.00
2023-04-27T01:27:32.966Z,6.94
2023-04-27T01:29:59.462Z,6.91
2023-04-27T01:32:26.023Z,6.85
2023-04-27T01:34:52.614Z,6.82
2023-04-27T01:37:19.058Z,6.86
2023-04-27T01:39:45.770Z,6.91
2023-04-27T01:42:12.209Z,6.87
2023-04-27T01:44:38.786Z,6.97
2023-04-27T01:47:05.167Z,6.99
2023-04-27T01:49:31.572Z,6.88
2023-04-27T01:51:58.061Z,6.87
2023-04-27T01:54:25.584Z,6.87
2023-04-27T01:56:53.198Z,6.85
2023-04-27T01:59:19.627Z,6.87
2023-04-27T02:01:46.064Z,6.79
2023-04-27T02:04:12.767Z,6.79
2023-04-27T02:06:39.447Z,6.82
2023-04-27T02:09:06.010Z,6.78
2023-04-27T02:11:32.457Z,6.78
2023-04-27T02:13:58.942Z,6.81
2023-04-27T02:16:25.436Z,6.76
2023-04-27T02:18:53.706Z,6.76
2023-04-27T02:21:20.217Z,6.85
2023-04-27T02:23:46.678Z,6.78
2023-04-27T02:26:20.423Z,6.66
2023-04-27T02:28:50.119Z,6.64
2023-04-27T02:31:17.110Z,6.63
2023-04-27T02:33:43.632Z,6.57
2023-04-27T02:36:10.007Z,6.55
2023-04-27T02:38:36.483Z,6.47
2023-04-27T02:41:03.041Z,6.45
2023-04-27T02:43:29.463Z,6.43
2023-04-27T02:45:55.850Z,6.56
2023-04-27T02:48:22.254Z,6.48
2023-04-27T02:50:48.660Z,6.46
2023-04-27T02:53:15.435Z,6.48
2023-04-27T02:55:49.732Z,6.37
2023-04-27T02:58:16.859Z,6.32
2023-04-27T03:00:43.790Z,6.34
2023-04-27T03:03:10.354Z,6.31
2023-04-27T03:05:37.539Z,6.28
2023-04-27T03:08:04.337Z,6.21
2023-04-27T03:10:30.828Z,6.21
2023-04-27T03:12:57.257Z,6.22
2023-04-27T03:15:23.687Z,6.23
2023-04-27T03:17:50.258Z,6.17
2023-04-27T03:20:16.732Z,6.18
2023-04-27T03:22:45.667Z,6.10
2023-04-27T03:25:12.185Z,6.13
2023-04-27T03:27:38.624Z,6.15
2023-04-27T03:30:05.719Z,6.15
2023-04-27T03:32:32.259Z,6.07
2023-04-27T03:34:58.674Z,6.11
2023-04-27T03:37:25.138Z,6.09
2023-04-27T03:39:52.703Z,6.18
2023-04-27T03:42:19.125Z,6.17
2023-04-27T03:44:45.544Z,6.09
2023-04-27T03:47:12.051Z,6.00
2023-04-27T03:49:38.417Z,5.99
2023-04-27T03:52:04.820Z,6.01
2023-04-27T03:54:31.725Z,6.01
2023-04-27T03:56:58.231Z,6.02
2023-04-27T03:59:24.641Z,5.99
2023-04-27T04:01:51.765Z,5.92
2023-04-27T04:04:18.355Z,5.90
2023-04-27T04:06:44.883Z,6.03
2023-04-27T04:09:12.823Z,6.00
2023-04-27T04:11:39.478Z,6.12
2023-04-27T04:14:05.929Z,6.12
2023-04-27T04:16:33.821Z,6.11
2023-04-27T04:19:00.263Z,6.15
2023-04-27T04:21:26.718Z,6.21
2023-04-27T04:23:53.153Z,6.20
2023-04-27T04:26:20.616Z,6.21
2023-04-27T04:28:46.996Z,6.27
2023-04-27T04:31:14.986Z,6.21
2023-04-27T04:33:41.441Z,6.24
2023-04-27T04:36:08.038Z,6.16
2023-04-27T04:38:34.605Z,6.15
2023-04-27T04:41:01.085Z,6.18
2023-04-27T04:43:27.741Z,6.23
2023-04-27T04:45:54.213Z,6.27
2023-04-27T04:48:20.598Z,6.12
2023-04-27T04:50:47.114Z,6.07
2023-04-27T04:53:13.534Z,6.20
2023-04-27T04:55:40.948Z,6.16
2023-04-27T04:58:07.457Z,5.98
2023-04-27T05:00:33.918Z,6.17
2023-04-27T05:03:01.404Z,6.26
2023-04-27T05:05:27.964Z,6.33
2023-04-27T05:07:54.382Z,6.36
2023-04-27T05:10:20.925Z,6.36
2023-04-27T05:12:47.287Z,6.38
2023-04-27T05:15:13.931Z,6.39
2023-04-27T05:17:40.549Z,6.35
2023-04-27T05:20:08.126Z,6.38
2023-04-27T05:22:34.559Z,6.32
2023-04-27T05:25:01.165Z,6.25
2023-04-27T05:27:27.625Z,6.27
2023-04-27T05:29:54.025Z,6.35
2023-04-27T05:32:20.443Z,6.36
2023-04-27T05:34:49.299Z,6.37
2023-04-27T05:37:16.084Z,6.45
2023-04-27T05:39:42.497Z,6.49
2023-04-27T05:42:08.923Z,6.47
2023-04-27T05:44:35.632Z,6.35
2023-04-27T05:47:02.100Z,6.37
2023-04-27T05:49:28.610Z,6.55
2023-04-27T05:51:55.478Z,6.57
2023-04-27T05:54:21.979Z,6.75
2023-04-27T05:56:48.455Z,6.64
2023-04-27T05:59:15.264Z,6.81
2023-04-27T06:01:41.973Z,6.86
2023-04-27T06:04:08.760Z,6.81
2023-04-27T06:06:35.460Z,6.89
2023-04-27T06:09:02.047Z,6.90
2023-04-27T06:11:28.577Z,7.03
2023-04-27T06:13:55.016Z,7.05
2023-04-27T06:16:21.537Z,7.06
2023-04-27T06:18:50.539Z,7.13
2023-04-27T06:21:17.116Z,7.17
2023-04-27T06:23:43.542Z,7.23
2023-04-27T06:26:10.001Z,7.12
2023-04-27T06:28:36.506Z,7.46
2023-04-27T06:31:03.181Z,7.37
2023-04-27T06:33:29.586Z,7.50
2023-04-27T06:35:56.009Z,7.71
2023-04-27T06:38:22.449Z,7.77
2023-04-27T06:40:53.028Z,7.81
2023-04-27T06:43:19.589Z,7.96
2023-04-27T06:45:46.073Z,8.02
2023-04-27T06:48:12.577Z,8.22
2023-04-27T06:50:39.043Z,8.25
2023-04-27T06:53:05.426Z,8.48
2023-04-27T06:55:31.845Z,8.56
2023-04-27T06:57:58.274Z,8.79
2023-04-27T07:00:24.789Z,9.05
2023-04-27T07:02:51.660Z,9.20
2023-04-27T07:05:18.648Z,9.24
2023-04-27T07:07:45.136Z,9.39
2023-04-27T07:10:11.752Z,9.26
2023-04-27T07:12:39.779Z,9.42
2023-04-27T07:15:07.150Z,9.29
2023-04-27T07:17:33.813Z,9.44
2023-04-27T07:20:02.048Z,9.57
2023-04-27T07:22:28.898Z,9.51
2023-04-27T07:24:55.302Z,9.44
2023-04-27T07:27:22.241Z,9.57
2023-04-27T07:29:48.709Z,9.45
2023-04-27T07:32:15.638Z,9.86
2023-04-27T07:34:52.705Z,9.83
2023-04-27T07:37:20.441Z,9.74
2023-04-27T07:39:47.329Z,9.83
2023-04-27T07:42:13.741Z,9.66
2023-04-27T07:44:40.800Z,9.93
2023-04-27T07:47:07.373Z,10.16
2023-04-27T07:49:35.000Z,10.19
2023-04-27T07:52:01.472Z,10.34
2023-04-27T07:54:27.925Z,10.19
2023-04-27T07:56:54.705Z,10.23
2023-04-27T07:59:21.204Z,10.35
2023-04-27T08:01:47.948Z,10.41
2023-04-27T08:04:16.009Z,10.33
2023-04-27T08:06:43.200Z,10.49
2023-04-27T08:09:10.024Z,10.23
2023-04-27T08:11:36.611Z,10.25
2023-04-27T08:14:03.229Z,10.11
2023-04-27T08:16:29.807Z,10.41
2023-04-27T08:18:57.563Z,10.61
2023-04-27T08:21:25.032Z,10.64
2023-04-27T08:23:51.530Z,10.75
2023-04-27T08:26:18.302Z,10.61
2023-04-27T08:28:44.734Z,10.49
2023-04-27T08:31:11.330Z,10.42
2023-04-27T08:33:37.815Z,10.36
2023-04-27T08:36:04.606Z,10.34
2023-04-27T08:38:31.090Z,10.39
2023-04-27T08:41:00.830Z,10.08
2023-04-27T08:43:35.902Z,10.21
2023-04-27T08:46:02.845Z,10.19
2023-04-27T08:48:29.379Z,10.17
2023-04-27T08:50:57.375Z,9.90
2023-04-27T08:53:23.908Z,10.36
2023-04-27T08:55:51.330Z,10.33
2023-04-27T08:58:18.141Z,10.07
2023-04-27T09:00:45.759Z,10.14
2023-04-27T09:03:25.733Z,10.29
2023-04-27T09:06:03.398Z,10.35
2023-04-27T09:08:43.416Z,10.32
2023-04-27T09:11:09.925Z,10.46
2023-04-27T09:13:40.637Z,10.54
2023-04-27T09:16:07.398Z,10.66
2023-04-27T09:18:37.829Z,10.54
2023-04-27T09:21:04.723Z,10.66
2023-04-27T09:23:38.379Z,10.84
2023-04-27T09:26:08.231Z,11.05
2023-04-27T09:28:39.776Z,11.09
2023-04-27T09:31:09.083Z,10.97
2023-04-27T09:33:36.118Z,11.28
2023-04-27T09:36:04.780Z,11.39
2023-04-27T09:38:31.821Z,11.46
2023-04-27T09:40:59.981Z,11.51
2023-04-27T09:43:28.604Z,11.57
2023-04-27T09:45:55.948Z,11.69
2023-04-27T09:48:24.164Z,11.56
2023-04-27T09:50:51.879Z,11.49
2023-04-27T09:53:20.411Z,11.47
2023-04-27T09:56:26.021Z,11.51
2023-04-27T09:58:52.371Z,11.43
2023-04-27T10:01:34.652Z,11.44
2023-04-27T10:04:29.573Z,11.31
2023-04-27T10:07:08.279Z,11.38
2023-04-27T10:09:41.600Z,11.33
2023-04-27T10:12:22.679Z,11.31
2023-04-27T10:14:51.388Z,11.14
2023-04-27T10:17:18.577Z,11.03
2023-04-27T10:20:01.276Z,10.92
2023-04-27T10:22:44.443Z,11.07
2023-04-27T10:25:22.080Z,10.96
2023-04-27T10:28:03.101Z,10.88
2023-04-27T10:30:35.891Z,10.75
2023-04-27T10:33:08.442Z,10.84
2023-04-27T10:35:36.233Z,10.85
2023-04-27T10:38:09.588Z,10.99
2023-04-27T10:40:37.577Z,11.06
2023-04-27T10:43:11.731Z,11.17
2023-04-27T10:45:38.664Z,11.20
2023-04-27T10:48:05.512Z,10.55
2023-04-27T10:50:32.262Z,10.77
2023-04-27T10:53:04.422Z,10.93
2023-04-27T10:55:31.578Z,11.01
2023-04-27T10:57:59.110Z,10.83
2023-04-27T11:00:45.888Z,11.08
2023-04-27T11:03:18.382Z,10.97
2023-04-27T11:05:47.032Z,11.08
2023-04-27T11:08:16.030Z,11.08
2023-04-27T11:10:51.359Z,11.27
2023-04-27T11:13:22.032Z,11.30
2023-04-27T11:15:54.763Z,11.27
2023-04-27T11:18:24.753Z,11.26
2023-04-27T11:20:53.400Z,11.16
2023-04-27T11:23:36.827Z,11.20
2023-04-27T11:26:14.982Z,11.31
2023-04-27T11:28:46.086Z,11.00
2023-04-27T11:31:12.737Z,11.36
2023-04-27T11:33:40.187Z,11.39
2023-04-27T11:36:26.587Z,11.61
2023-04-27T11:38:57.795Z,11.52
2023-04-27T11:41:36.292Z,11.57
2023-04-27T11:44:07.765Z,11.72
2023-04-27T11:46:38.642Z,11.65
2023-04-27T11:49:08.581Z,11.69
2023-04-27T11:51:36.153Z,11.87
2023-04-27T11:54:04.447Z,11.75
2023-04-27T11:56:38.579Z,11.77
2023-04-27T11:59:05.749Z,12.05
2023-04-27T12:01:37.956Z,11.77
2023-04-27T12:04:05.214Z,12.05
2023-04-27T12:06:33.754Z,12.18
2023-04-27T12:09:01.872Z,12.22
2023-04-27T12:11:28.312Z,12.12
2023-04-27T12:13:55.898Z,12.20
2023-04-27T12:16:22.725Z,11.87
2023-04-27T12:18:52.289Z,12.16
2023-04-27T12:21:18.809Z,11.91
2023-04-27T12:23:45.238Z,12.12
2023-04-27T12:26:14.418Z,12.25
2023-04-27T12:28:41.668Z,11.99
2023-04-27T12:31:08.269Z,12.19
2023-04-27T12:33:35.112Z,12.05
2023-04-27T12:36:01.665Z,11.67
2023-04-27T12:38:28.224Z,12.01
2023-04-27T12:40:54.749Z,11.61
2023-04-27T12:43:21.210Z,11.56
2023-04-27T12:45:47.600Z,11.81
2023-04-27T12:48:16.969Z,12.10
2023-04-27T12:50:44.135Z,11.75
2023-04-27T12:53:10.558Z,11.84
2023-04-27T12:55:37.261Z,11.36
2023-04-27T12:58:04.836Z,11.47
2023-04-27T13:00:31.420Z,11.73
2023-04-27T13:02:58.539Z,11.78
2023-04-27T13:05:25.946Z,11.74
2023-04-27T13:07:52.745Z,11.87
2023-04-27T13:10:19.188Z,11.93
2023-04-27T13:12:48.106Z,12.08
2023-04-27T13:15:14.536Z,12.13
2023-04-27T13:17:43.495Z,12.00
2023-04-27T13:20:10.871Z,12.01
2023-04-27T13:22:37.328Z,11.93
2023-04-27T13:25:05.974Z,11.94
2023-04-27T13:27:32.412Z,12.01
2023-04-27T13:29:58.808Z,12.14
2023-04-27T13:32:25.481Z,12.25
2023-04-27T13:34:52.020Z,12.02
2023-04-27T13:37:18.729Z,12.17
2023-04-27T13:39:45.580Z,11.92
2023-04-27T13:42:12.420Z,12.03
2023-04-27T13:44:39.037Z,12.12
2023-04-27T13:47:05.771Z,11.97
2023-04-27T13:49:32.269Z,11.85
2023-04-27T13:51:59.804Z,11.94
2023-04-27T13:54:27.153Z,11.90
2023-04-27T13:56:53.579Z,11.93
2023-04-27T13:59:20.104Z,12.05
2023-04-27T14:01:46.493Z,12.08
2023-04-27T14:04:13.120Z,12.08
2023-04-27T14:06:39.581Z,12.09
2023-04-27T14:09:06.188Z,12.14
2023-04-27T14:11:39.438Z,12.15
2023-04-27T14:14:11.789Z,12.19
2023-04-27T14:16:38.326Z,12.29
2023-04-27T14:19:04.981Z,12.34
2023-04-27T14:21:32.181Z,12.40
2023-04-27T14:23:58.617Z,12.43
2023-04-27T14:26:25.140Z,12.51
2023-04-27T14:28:51.823Z,12.52
2023-04-27T14:31:18.258Z,12.55
2023-04-27T14:33:44.677Z,12.41
2023-04-27T14:36:11.140Z,12.37
2023-04-27T14:38:37.537Z,12.07
2023-04-27T14:41:03.987Z,12.43
2023-04-27T14:43:31.659Z,12.16
2023-04-27T14:46:05.051Z,12.62
2023-04-27T14:48:46.405Z,12.71
2023-04-27T14:51:16.408Z,12.51
2023-04-27T14:53:43.870Z,12.35
2023-04-27T14:56:10.966Z,12.44
2023-04-27T14:58:37.470Z,12.39
2023-04-27T15:01:03.997Z,12.43
2023-04-27T15:03:33.558Z,12.29
2023-04-27T15:06:01.391Z,12.44
2023-04-27T15:08:28.163Z,12.08
2023-04-27T15:10:59.719Z,12.20
2023-04-27T15:13:27.197Z,12.23
2023-04-27T15:15:58.337Z,12.19
2023-04-27T15:18:25.618Z,12.28
2023-04-27T15:20:56.458Z,12.04
2023-04-27T15:23:25.438Z,11.95
2023-04-27T15:25:55.669Z,11.92
2023-04-27T15:28:22.202Z,11.97
2023-04-27T15:30:49.296Z,12.10
2023-04-27T15:33:16.499Z,12.01
2023-04-27T15:35:43.054Z,12.04
2023-04-27T15:38:12.116Z,12.00
2023-04-27T15:40:39.276Z,11.81
2023-04-27T15:43:06.016Z,11.85
2023-04-27T15:45:32.686Z,11.83
2023-04-27T15:47:59.390Z,11.81
2023-04-27T15:50:25.989Z,11.81
2023-04-27T15:52:52.911Z,11.81
2023-04-27T15:55:19.687Z,11.94
2023-04-27T15:57:46.224Z,11.91
2023-04-27T16:00:15.171Z,11.92
2023-04-27T16:02:41.913Z,11.91
2023-04-27T16:05:09.701Z,11.81
2023-04-27T16:07:37.239Z,11.83
2023-04-27T16:10:03.954Z,11.73
2023-04-27T16:12:30.622Z,11.69
2023-04-27T16:14:57.688Z,11.81
2023-04-27T16:17:25.144Z,11.83
2023-04-27T16:19:51.682Z,11.74
2023-04-27T16:22:18.576Z,11.87
2023-04-27T16:24:45.382Z,11.97
2023-04-27T16:27:12.047Z,11.97
2023-04-27T16:29:38.785Z,12.02
2023-04-27T16:32:06.196Z,12.02
2023-04-27T16:34:32.701Z,12.09
2023-04-27T16:36:59.175Z,12.05
2023-04-27T16:39:25.699Z,11.98
2023-04-27T16:41:52.436Z,11.99
2023-04-27T16:44:18.844Z,11.80
2023-04-27T16:46:45.712Z,11.63
2023-04-27T16:49:12.227Z,11.66
2023-04-27T16:51:38.760Z,11.66
2023-04-27T16:54:05.266Z,11.62
2023-04-27T16:56:34.813Z,11.76
2023-04-27T16:59:01.792Z,11.65
2023-04-27T17:01:31.418Z,11.59
2023-04-27T17:03:59.566Z,11.62
2023-04-27T17:06:28.034Z,11.56
2023-04-27T17:08:56.002Z,11.39
2023-04-27T17:11:22.755Z,11.27
2023-04-27T17:13:52.243Z,11.22
2023-04-27T17:16:19.662Z,11.25
2023-04-27T17:18:49.293Z,11.17
2023-04-27T17:21:17.084Z,11.17
2023-04-27T17:23:46.457Z,11.14
2023-04-27T17:26:15.729Z,11.15
2023-04-27T17:28:42.172Z,11.10
2023-04-27T17:31:08.689Z,11.11
2023-04-27T17:33:35.325Z,11.06
2023-04-27T17:36:01.798Z,11.06
2023-04-27T17:38:28.302Z,11.17
2023-04-27T17:40:54.726Z,11.14
2023-04-27T17:43:21.337Z,11.12
2023-04-27T17:45:47.752Z,11.11
2023-04-27T17:48:14.400Z,11.06
2023-04-27T17:50:41.077Z,11.03
2023-04-27T17:53:07.889Z,10.90
2023-04-27T17:55:34.467Z,10.85
2023-04-27T17:58:03.647Z,10.84
2023-04-27T18:00:30.507Z,10.76
2023-04-27T18:02:57.345Z,10.71
2023-04-27T18:05:24.072Z,10.62
2023-04-27T18:07:50.732Z,10.59
2023-04-27T18:10:17.264Z,10.55
2023-04-27T18:12:43.772Z,10.46
2023-04-27T18:15:10.581Z,10.43
2023-04-27T18:17:37.121Z,10.40
2023-04-27T18:20:09.796Z,10.19
2023-04-27T18:22:38.360Z,10.12
2023-04-27T18:25:05.337Z,10.06
2023-04-27T18:27:32.908Z,10.01
2023-04-27T18:29:59.595Z,9.93
2023-04-27T18:32:26.095Z,9.94
2023-04-27T18:34:52.686Z,9.94
2023-04-27T18:37:19.176Z,9.86
2023-04-27T18:39:45.787Z,9.67
2023-04-27T18:42:12.366Z,9.53
2023-04-27T18:44:38.849Z,9.62
2023-04-27T18:47:07.540Z,9.67
2023-04-27T18:49:34.093Z,9.67
2023-04-27T18:52:00.586Z,9.72
2023-04-27T18:54:27.155Z,9.76
2023-04-27T18:56:53.840Z,9.73
2023-04-27T18:59:20.366Z,9.67
2023-04-27T19:01:47.013Z,9.60
2023-04-27T19:04:14.655Z,9.52
2023-04-27T19:06:41.480Z,9.51
2023-04-27T19:09:09.142Z,9.48
2023-04-27T19:11:35.935Z,9.42
2023-04-27T19:14:02.470Z,9.28
2023-04-27T19:16:28.973Z,9.20
2023-04-27T19:18:55.495Z,9.05
2023-04-27T19:21:21.910Z,8.92
2023-04-27T19:23:48.372Z,8.89
2023-04-27T19:26:15.089Z,8.85
2023-04-27T19:28:41.822Z,8.82
2023-04-27T19:31:08.474Z,8.77
2023-04-27T19:33:35.243Z,8.70
2023-04-27T19:36:01.808Z,8.67
2023-04-27T19:38:28.361Z,8.61
2023-04-27T19:40:54.808Z,8.61
2023-04-27T19:43:21.534Z,8.63
2023-04-27T19:45:51.170Z,8.63
2023-04-27T19:48:17.736Z,8.62
2023-04-27T19:50:44.377Z,8.60
2023-04-27T19:53:11.174Z,8.53
2023-04-27T19:55:37.876Z,8.47
2023-04-27T19:58:04.631Z,8.55
2023-04-27T20:00:31.145Z,8.59
2023-04-27T20:02:58.006Z,8.58
2023-04-27T20:05:25.190Z,8.57
2023-04-27T20:07:52.416Z,8.43
2023-04-27T20:10:18.957Z,8.47
2023-04-27T20:12:56.274Z,8.43
2023-04-27T20:15:23.652Z,8.40
2023-04-27T20:17:50.096Z,8.38
2023-04-27T20:20:16.643Z,8.25
2023-04-27T20:22:43.153Z,8.28
2023-04-27T20:25:09.868Z,8.21
2023-04-27T20:27:36.489Z,8.17
2023-04-27T20:30:03.765Z,8.10
2023-04-27T20:32:30.219Z,8.08
2023-04-27T20:34:56.662Z,7.94
2023-04-27T20:37:24.724Z,7.92
2023-04-27T20:39:52.085Z,7.73
2023-04-27T20:42:18.699Z,7.57
2023-04-27T20:44:48.472Z,7.55
2023-04-27T20:47:15.127Z,7.45
2023-04-27T20:49:42.061Z,7.44
2023-04-27T20:52:08.807Z,7.30
2023-04-27T20:54:36.117Z,7.22
2023-04-27T20:57:03.629Z,7.12
2023-04-27T20:59:30.173Z,6.95
2023-04-27T21:01:56.921Z,6.83
2023-04-27T21:04:23.407Z,6.78
2023-04-27T21:06:49.916Z,6.63
2023-04-27T21:09:16.292Z,6.47
2023-04-27T21:11:42.730Z,6.45
2023-04-27T21:14:09.269Z,6.37
2023-04-27T21:16:35.840Z,6.24
2023-04-27T21:19:02.241Z,6.09
2023-04-27T21:21:28.688Z,6.08
2023-04-27T21:24:06.684Z,6.02
2023-04-27T21:26:33.540Z,6.02
2023-04-27T21:28:59.961Z,5.99
2023-04-27T21:31:26.401Z,5.96
2023-04-27T21:33:52.983Z,5.85
2023-04-27T21:36:19.807Z,5.77
2023-04-27T21:38:47.126Z,5.65
2023-04-27T21:41:13.783Z,5.68
2023-04-27T21:43:42.014Z,5.61
2023-04-27T21:46:09.208Z,5.56
2023-04-27T21:48:36.201Z,5.52
2023-04-27T21:51:02.755Z,5.42
2023-04-27T21:53:32.333Z,5.32
2023-04-27T21:55:59.007Z,5.19
2023-04-27T21:58:25.950Z,5.12
2023-04-27T22:00:52.411Z,5.09
2023-04-27T22:03:18.956Z,5.09
2023-04-27T22:05:48.698Z,5.14
2023-04-27T22:08:15.134Z,5.10
2023-04-27T22:10:41.671Z,5.08
2023-04-27T22:13:18.774Z,5.15
2023-04-27T22:15:46.116Z,5.00
2023-04-27T22:18:14.255Z,4.96
2023-04-27T22:20:40.999Z,4.99
2023-04-27T22:23:07.644Z,4.80
2023-04-27T22:25:34.050Z,4.80
2023-04-27T22:28:01.585Z,4.77
2023-04-27T22:30:28.976Z,4.80
2023-04-27T22:32:56.675Z,4.73
2023-04-27T22:35:27.152Z,4.68
2023-04-27T22:37:57.684Z,4.66
2023-04-27T22:40:24.527Z,4.66
2023-04-27T22:42:51.338Z,4.54
2023-04-27T22:45:17.965Z,4.46
2023-04-27T22:47:45.774Z,4.34
2023-04-27T22:50:13.412Z,4.28
2023-04-27T22:52:42.249Z,4.19
2023-04-27T22:55:09.998Z,4.29
2023-04-27T22:57:36.799Z,4.08
2023-04-27T23:00:05.369Z,4.03
2023-04-27T23:02:32.312Z,3.94
2023-04-27T23:04:59.074Z,3.92
2023-04-27T23:07:25.540Z,3.84
2023-04-27T23:09:52.752Z,3.87
2023-04-27T23:12:20.630Z,3.96
2023-04-27T23:14:47.117Z,4.12
2023-04-27T23:17:15.307Z,4.15
2023-04-27T23:19:41.846Z,3.97
2023-04-27T23:22:08.299Z,3.98
2023-04-27T23:24:34.755Z,3.88
2023-04-27T23:27:01.206Z,3.78
2023-04-27T23:29:27.854Z,3.81
2023-04-27T23:31:54.272Z,3.87
2023-04-27T23:34:20.671Z,3.88
2023-04-27T23:36:47.295Z,3.80
2023-04-27T23:39:13.753Z,3.72
2023-04-27T23:41:40.179Z,3.68
2023-04-27T23:44:06.829Z,3.58
2023-04-27T23:46:33.416Z,3.55
2023-04-27T23:48:59.858Z,3.42
2023-04-27T23:51:27.028Z,3.40
2023-04-27T23:53:53.452Z,3.53
2023-04-27T23:56:19.930Z,3.42
2023-04-27T23:58:46.374Z,3.29
